• Join FlightAware (Why Join?)
  • Login
  • US Flag 
04:03PM EDT


 

Airport Tracker/Info


-or-


 

Live Flight TrackerFlight Track Log ✈ N4608W ✈ 11-Oct-2013 ✈ KLUK - KMRT

Flight Track Log - Related Links

Times and Time Zones

All times are in EDT time to prevent confusion due to time zone crossing. See the N4608W flight status page for this flight to view local times or setup timezone preferences in your user account.

Time Position Orientation Groundspeed Altitude Reporting Facility
EDT Latitude Longitude Course Direction KTS MPH feet Rate Location/Type
04:52PM 39.0667 -84.4167 33° Northeast 92 106 1,300  Level Cincinnati TRACON
04:53PM 39.0833 -84.4000 38° Northeast 92 106 2,000 420 Climbing Cincinnati TRACON
04:54PM 39.1167 -84.3833 21° North 116 133 2,200 540 Climbing Cincinnati TRACON
04:55PM 39.1333 -84.3500 57° Northeast 94 108 3,100 660 Climbing Cincinnati TRACON
04:56PM 39.1486 -84.3386 30° Northeast 112 129 3,500 660 Climbing Indianapolis Center
04:57PM 39.1736 -84.3208 29° Northeast 89 102 4,400 720 Climbing Indianapolis Center
04:58PM 39.2634 -84.2690 33° Northeast  Level Estimated
04:58PM 39.1953 -84.3078 25° Northeast 86 99 5,100  Level Indianapolis Center
04:59PM 39.2144 -84.2928 31° Northeast 84 97 5,800 600 Climbing Indianapolis Center
05:00PM 39.2306 -84.2728 44° Northeast 82 94 6,400 540 Climbing Indianapolis Center
05:01PM 39.2503 -84.2572 31° Northeast 82 94 7,000 540 Climbing Indianapolis Center
05:02PM 39.2697 -84.2411 33° Northeast 83 96 7,600 660 Climbing Indianapolis Center
05:03PM 39.2864 -84.2308 26° Northeast 87 100 8,100 660 Climbing Indianapolis Center
05:03PM 39.2947 -84.2228 37° Northeast 86 99 8,300 540 Climbing Indianapolis Center
05:04PM 39.3164 -84.2103 24° Northeast 85 98 8,900 540 Climbing Indianapolis Center
05:05PM 39.3186 -84.2067 51° Northeast 85 98 9,000 480 Climbing Indianapolis Center
05:05PM 39.3308 -84.1897 47° Northeast 85 98 9,400 420 Climbing Indianapolis Center
05:05PM 39.3322 -84.1875 51° Northeast 86 99 9,400 180 Level Indianapolis Center
05:06PM 39.3547 -84.1642 39° Northeast 104 120 9,600 180 Climbing Indianapolis Center
05:06PM 39.3525 -84.1656 206° Southwest 93 107 9,600  Level Indianapolis Center
05:08PM 39.3797 -84.1400 36° Northeast 116 133 9,600  Level Indianapolis Center
05:08PM 39.4111 -84.1092 37° Northeast 132 152 9,600  Level Indianapolis Center
05:09PM 39.4139 -84.1053 47° Northeast 129 148 9,600 -120 Level Indianapolis Center
05:09PM 39.4411 -84.0819 34° Northeast 136 157 9,500 -120 Descending Indianapolis Center
05:10PM 39.4444 -84.0764 52° Northeast 135 155 9,500  Level Indianapolis Center
05:10PM 39.4694 -84.0542 34° Northeast 136 157 9,500  Level Indianapolis Center
05:11PM 39.4758 -84.0497 28° Northeast 137 158 9,500  Level Indianapolis Center
05:11PM 39.5019 -84.0247 36° Northeast 129 148 9,500  Level Indianapolis Center
05:12PM 39.5044 -84.0222 38° Northeast 130 150 9,500  Level Indianapolis Center
05:13PM 39.5331 -83.9892 42° Northeast 130 150 9,500  Level Indianapolis Center
05:13PM 39.5322 -83.9925 252° West 129 148 9,500  Level Indianapolis Center
05:14PM 39.5650 -83.9650 33° Northeast 132 152 9,500  Level Indianapolis Center
05:14PM 39.5619 -83.9658 192° South 130 150 9,500  Level Indianapolis Center
05:15PM 39.5956 -83.9350 35° Northeast 132 152 9,500  Level Indianapolis Center
05:15PM 39.5978 -83.9311 53° Northeast 133 153 9,500  Level Indianapolis Center
05:16PM 39.6236 -83.9072 35° Northeast 133 153 9,500  Level Indianapolis Center
05:16PM 39.6281 -83.9031 36° Northeast 133 153 9,500  Level Indianapolis Center
05:17PM 39.6536 -83.8825 32° Northeast 130 150 9,500  Level Indianapolis Center
05:17PM 39.6586 -83.8769 41° Northeast 131 151 9,500  Level Indianapolis Center
05:18PM 39.6869 -83.8500 36° Northeast 128 147 9,500  Level Indianapolis Center
05:19PM 39.7144 -83.8222 38° Northeast 132 152 9,500  Level Indianapolis Center
05:19PM 39.7164 -83.8211 24° Northeast 131 151 9,500  Level Indianapolis Center
05:20PM 39.7419 -83.7997 33° Northeast 129 148 9,500  Level Indianapolis Center
05:20PM 39.7461 -83.7953 39° Northeast 129 148 9,500  Level Indianapolis Center
05:21PM 39.7700 -83.7719 37° Northeast 128 147 9,500  Level Indianapolis Center
05:21PM 39.7803 -83.7619 37° Northeast 127 146 9,500  Level Indianapolis Center
05:22PM 39.8025 -83.7419 35° Northeast 129 148 9,500  Level Indianapolis Center
05:22PM 39.8092 -83.7336 44° Northeast 129 148 9,500  Level Indianapolis Center
05:23PM 39.8344 -83.7175 26° Northeast 134 154 9,500  Level Indianapolis Center
05:23PM 39.8422 -83.7139 20° North 131 151 9,500 -240 Level Indianapolis Center
05:24PM 39.8661 -83.6956 30° Northeast 127 146 9,300 -300 Descending Indianapolis Center
05:24PM 39.8728 -83.6883 40° Northeast 129 148 9,200 -660 Descending Indianapolis Center
05:25PM 39.9008 -83.6661 31° Northeast 144 166 8,600 -720 Descending Indianapolis Center
05:25PM 39.9064 -83.6619 30° Northeast 135 155 8,500 -780 Descending Indianapolis Center
05:26PM 39.9322 -83.6467 24° Northeast 146 168 8,000 -780 Descending Indianapolis Center
05:26PM 39.9428 -83.6375 34° Northeast 143 165 7,700 -900 Descending Indianapolis Center
05:27PM 39.9644 -83.6194 33° Northeast 146 168 7,200 -900 Descending Indianapolis Center
05:27PM 39.9783 -83.6094 29° Northeast 146 168 6,800 -900 Descending Indianapolis Center
05:28PM 40.0003 -83.5956 26° Northeast 150 173 6,300 -900 Descending Indianapolis Center
05:28PM 40.0156 -83.5833 31° Northeast 148 170 5,900 -900 Descending Indianapolis Center
05:29PM 40.0392 -83.5639 32° Northeast 148 170 5,300 -1,080 Descending Indianapolis Center
05:29PM 40.0581 -83.5494 30° Northeast 150 173 4,800 -480 Descending Indianapolis Center
05:30PM 40.0958 -83.5258 26° Northeast 150 173 4,600 -240 Descending Indianapolis Center
05:32PM 40.1245 -83.4872 37° Northeast  Level Estimated
05:39PM 40.2167 -83.3500 37° Northeast  Level FlightAware Approximate
05:40PM 40.2247 -83.3516 37° Northeast  Level Estimated
05:41PM 40.2247 -83.3516 37° Northeast  Level Estimated
05:42PM 40.2247 -83.3516 37° Northeast  Level Estimated
05:43PM 40.2247 -83.3516 37° Northeast  Level Estimated
05:44PM 40.2247 -83.3516 37° Northeast  Level Estimated
05:45PM 40.2247 -83.3516 37° Northeast  Level Estimated
05:46PM 40.2247 -83.3516 37° Northeast  Level Estimated
05:47PM 40.2247 -83.3516 37° Northeast  Level Estimated